SWR7HD LEAL-LEPA
Flight info
| Callsign | SWR7HD |
|---|---|
| Flight time | 0h 30m |
| Altitude | 24000 |
| Route | MITOS N851 RUXET |
| Aircraft | MD11/H-SDE1E2E3FGHIJ2J3J4J5M1RWXY/LB1D1 |
Departure
| Time | 2026-05-07 19:42 |
|---|---|
| Airport | Alicante-Elche Miguel Hernández Airport (LEAL) |
Arrival
| Time | 2026-05-07 20:13 |
|---|---|
| Airport | Palma de Mallorca Airport (LEPA) |
| Time | Latitude | Longitude | Altitude | Speed | Heading |
|---|---|---|---|---|---|
| 2026-05-07 18:56 | 38.28515 | -0.55093 | 92 ft | 0 kts | 330° |
| 2026-05-07 19:30 | 38.28514 | -0.55093 | 95 ft | 1 kts | 330° |
| 2026-05-07 19:30 | 38.28493 | -0.55077 | 95 ft | 4 kts | 328° |
| 2026-05-07 19:30 | 38.28470 | -0.55059 | 93 ft | 4 kts | 324° |
| 2026-05-07 19:31 | 38.28449 | -0.55038 | 94 ft | 4 kts | 318° |
| 2026-05-07 19:31 | 38.28430 | -0.55014 | 94 ft | 4 kts | 306° |
| 2026-05-07 19:31 | 38.28417 | -0.54987 | 94 ft | 4 kts | 282° |
| 2026-05-07 19:31 | 38.28418 | -0.54997 | 94 ft | 4 kts | 278° |
| 2026-05-07 19:32 | 38.28421 | -0.55031 | 94 ft | 4 kts | 277° |
| 2026-05-07 19:32 | 38.28424 | -0.55056 | 96 ft | 0 kts | 276° |
| 2026-05-07 19:35 | 38.28423 | -0.55064 | 97 ft | 1 kts | 270° |
| 2026-05-07 19:36 | 38.28422 | -0.55073 | 96 ft | 3 kts | 265° |
| 2026-05-07 19:36 | 38.28409 | -0.55120 | 97 ft | 8 kts | 240° |
| 2026-05-07 19:36 | 38.28364 | -0.55202 | 96 ft | 14 kts | 234° |
| 2026-05-07 19:36 | 38.28327 | -0.55312 | 98 ft | 12 kts | 268° |
| 2026-05-07 19:37 | 38.28337 | -0.55406 | 102 ft | 11 kts | 278° |
| 2026-05-07 19:37 | 38.28349 | -0.55501 | 102 ft | 11 kts | 281° |
| 2026-05-07 19:37 | 38.28363 | -0.55590 | 105 ft | 10 kts | 281° |
| 2026-05-07 19:37 | 38.28377 | -0.55688 | 108 ft | 13 kts | 280° |
| 2026-05-07 19:38 | 38.28396 | -0.55822 | 111 ft | 17 kts | 280° |
| 2026-05-07 19:38 | 38.28419 | -0.55990 | 112 ft | 21 kts | 281° |
| 2026-05-07 19:38 | 38.28448 | -0.56189 | 116 ft | 25 kts | 280° |
| 2026-05-07 19:38 | 38.28476 | -0.56393 | 119 ft | 20 kts | 280° |
| 2026-05-07 19:39 | 38.28496 | -0.56536 | 125 ft | 14 kts | 280° |
| 2026-05-07 19:39 | 38.28515 | -0.56675 | 127 ft | 19 kts | 280° |
| 2026-05-07 19:39 | 38.28540 | -0.56844 | 136 ft | 19 kts | 280° |
| 2026-05-07 19:39 | 38.28563 | -0.57012 | 144 ft | 19 kts | 279° |
| 2026-05-07 19:40 | 38.28586 | -0.57182 | 151 ft | 15 kts | 280° |
| 2026-05-07 19:40 | 38.28601 | -0.57285 | 156 ft | 10 kts | 280° |
| 2026-05-07 19:40 | 38.28614 | -0.57383 | 159 ft | 13 kts | 280° |
| 2026-05-07 19:40 | 38.28611 | -0.57480 | 161 ft | 4 kts | 244° |
| 2026-05-07 19:41 | 38.28601 | -0.57490 | 162 ft | 2 kts | 215° |
| 2026-05-07 19:41 | 38.28580 | -0.57500 | 163 ft | 5 kts | 198° |
| 2026-05-07 19:41 | 38.28526 | -0.57515 | 164 ft | 11 kts | 191° |
| 2026-05-07 19:41 | 38.28453 | -0.57472 | 163 ft | 14 kts | 121° |
| 2026-05-07 19:42 | 38.28413 | -0.57227 | 152 ft | 66 kts | 99° |
| 2026-05-07 19:42 | 38.28277 | -0.56238 | 122 ft | 155 kts | 99° |
| 2026-05-07 19:42 | 38.28073 | -0.54729 | 669 ft | 174 kts | 99° |
| 2026-05-07 19:42 | 38.27843 | -0.53241 | 1812 ft | 169 kts | 99° |
| 2026-05-07 19:43 | 38.27600 | -0.51716 | 2527 ft | 191 kts | 99° |
| 2026-05-07 19:43 | 38.27526 | -0.49861 | 2652 ft | 226 kts | 81° |
| 2026-05-07 19:43 | 38.28052 | -0.47880 | 2822 ft | 248 kts | 57° |
| 2026-05-07 19:43 | 38.29179 | -0.46194 | 3364 ft | 248 kts | 45° |
| 2026-05-07 19:44 | 38.30401 | -0.44663 | 4068 ft | 247 kts | 47° |
| 2026-05-07 19:44 | 38.31378 | -0.42793 | 4393 ft | 262 kts | 62° |
| 2026-05-07 19:44 | 38.32157 | -0.40688 | 4938 ft | 263 kts | 65° |
| 2026-05-07 19:44 | 38.32886 | -0.38550 | 5184 ft | 263 kts | 67° |
| 2026-05-07 19:45 | 38.33558 | -0.36379 | 5839 ft | 264 kts | 68° |
| 2026-05-07 19:45 | 38.34225 | -0.34175 | 6487 ft | 269 kts | 68° |
| 2026-05-07 19:45 | 38.34905 | -0.31931 | 7138 ft | 273 kts | 68° |
| 2026-05-07 19:45 | 38.35594 | -0.29664 | 7805 ft | 277 kts | 67° |
| 2026-05-07 19:46 | 38.36318 | -0.27376 | 8497 ft | 281 kts | 66° |
| 2026-05-07 19:46 | 38.37079 | -0.25061 | 9211 ft | 285 kts | 65° |
| 2026-05-07 19:46 | 38.37859 | -0.22714 | 9927 ft | 290 kts | 65° |
| 2026-05-07 19:46 | 38.38664 | -0.20299 | 10218 ft | 312 kts | 65° |
| 2026-05-07 19:47 | 38.39554 | -0.17635 | 10356 ft | 341 kts | 65° |
| 2026-05-07 19:47 | 38.40522 | -0.14734 | 10486 ft | 369 kts | 65° |
| 2026-05-07 19:47 | 38.41562 | -0.11614 | 10614 ft | 396 kts | 66° |
| 2026-05-07 19:47 | 38.42664 | -0.08299 | 11063 ft | 412 kts | 66° |
| 2026-05-07 19:48 | 38.43787 | -0.04910 | 11935 ft | 418 kts | 66° |
| 2026-05-07 19:48 | 38.44922 | -0.01465 | 12786 ft | 424 kts | 66° |
| 2026-05-07 19:48 | 38.46057 | 0.02037 | 13627 ft | 431 kts | 66° |
| 2026-05-07 19:48 | 38.47203 | 0.05599 | 14388 ft | 437 kts | 66° |
| 2026-05-07 19:49 | 38.48361 | 0.09211 | 15122 ft | 442 kts | 66° |
| 2026-05-07 19:49 | 38.49532 | 0.12864 | 15840 ft | 448 kts | 67° |
| 2026-05-07 19:49 | 38.50718 | 0.16566 | 16550 ft | 453 kts | 67° |
| 2026-05-07 19:49 | 38.51920 | 0.20317 | 17258 ft | 459 kts | 67° |
| 2026-05-07 19:50 | 38.53135 | 0.24111 | 17954 ft | 464 kts | 67° |
| 2026-05-07 19:50 | 38.54365 | 0.27957 | 18613 ft | 470 kts | 67° |
| 2026-05-07 19:50 | 38.55608 | 0.31848 | 19225 ft | 475 kts | 67° |
| 2026-05-07 19:50 | 38.56865 | 0.35788 | 19832 ft | 481 kts | 67° |
| 2026-05-07 19:51 | 38.58132 | 0.39764 | 20426 ft | 486 kts | 67° |
| 2026-05-07 19:51 | 38.59412 | 0.43790 | 21032 ft | 491 kts | 67° |
| 2026-05-07 19:51 | 38.60702 | 0.47857 | 21632 ft | 496 kts | 67° |
| 2026-05-07 19:51 | 38.61999 | 0.51980 | 22232 ft | 501 kts | 67° |
| 2026-05-07 19:52 | 38.63302 | 0.56136 | 22728 ft | 507 kts | 67° |
| 2026-05-07 19:52 | 38.64619 | 0.60337 | 23138 ft | 511 kts | 67° |
| 2026-05-07 19:52 | 38.65942 | 0.64561 | 23544 ft | 511 kts | 68° |
| 2026-05-07 19:52 | 38.67068 | 0.68813 | 23835 ft | 513 kts | 75° |
| 2026-05-07 19:53 | 38.67832 | 0.73294 | 23922 ft | 518 kts | 80° |
| 2026-05-07 19:53 | 38.68361 | 0.77859 | 23945 ft | 521 kts | 83° |
| 2026-05-07 19:53 | 38.68793 | 0.82471 | 23958 ft | 522 kts | 83° |
| 2026-05-07 19:53 | 38.69201 | 0.87086 | 23944 ft | 521 kts | 83° |
| 2026-05-07 19:54 | 38.69769 | 0.91647 | 23955 ft | 519 kts | 76° |
| 2026-05-07 19:54 | 38.70771 | 0.96085 | 23943 ft | 518 kts | 71° |
| 2026-05-07 19:54 | 38.71970 | 1.00433 | 23955 ft | 517 kts | 70° |
| 2026-05-07 19:54 | 38.73195 | 1.04755 | 23942 ft | 516 kts | 70° |
| 2026-05-07 19:55 | 38.74378 | 1.09090 | 23935 ft | 515 kts | 71° |
| 2026-05-07 19:55 | 38.75504 | 1.13443 | 23945 ft | 514 kts | 72° |
| 2026-05-07 19:55 | 38.76582 | 1.17798 | 23933 ft | 513 kts | 73° |
| 2026-05-07 19:55 | 38.77635 | 1.22168 | 23936 ft | 512 kts | 73° |
| 2026-05-07 19:56 | 38.78671 | 1.26529 | 23936 ft | 511 kts | 73° |
| 2026-05-07 19:56 | 38.79702 | 1.30884 | 23945 ft | 510 kts | 74° |
| 2026-05-07 19:56 | 38.80732 | 1.35236 | 23933 ft | 510 kts | 74° |
| 2026-05-07 19:56 | 38.81761 | 1.39585 | 23935 ft | 510 kts | 74° |
| 2026-05-07 19:57 | 38.82791 | 1.43936 | 23945 ft | 510 kts | 74° |
| 2026-05-07 19:57 | 38.83821 | 1.48286 | 23936 ft | 510 kts | 74° |
| 2026-05-07 19:57 | 38.84849 | 1.52635 | 23946 ft | 509 kts | 74° |
| 2026-05-07 19:57 | 38.85876 | 1.56989 | 23936 ft | 510 kts | 74° |
| 2026-05-07 19:58 | 38.86902 | 1.61345 | 23934 ft | 510 kts | 74° |
| 2026-05-07 19:58 | 38.87915 | 1.65653 | 23944 ft | 510 kts | 74° |
| 2026-05-07 19:58 | 38.88937 | 1.70009 | 23937 ft | 511 kts | 74° |
| 2026-05-07 19:58 | 38.89962 | 1.74388 | 23948 ft | 512 kts | 74° |
| 2026-05-07 19:59 | 38.90985 | 1.78767 | 23934 ft | 512 kts | 74° |
| 2026-05-07 19:59 | 38.92006 | 1.83153 | 23952 ft | 511 kts | 74° |
| 2026-05-07 19:59 | 38.92998 | 1.87467 | 23811 ft | 491 kts | 74° |
| 2026-05-07 19:59 | 38.93931 | 1.91554 | 23652 ft | 466 kts | 75° |
| 2026-05-07 20:00 | 38.94835 | 1.95516 | 23223 ft | 457 kts | 75° |
| 2026-05-07 20:00 | 38.95726 | 1.99418 | 22570 ft | 455 kts | 75° |
| 2026-05-07 20:00 | 38.96619 | 2.03316 | 21951 ft | 454 kts | 75° |
| 2026-05-07 20:00 | 38.97512 | 2.07212 | 21351 ft | 456 kts | 75° |
| 2026-05-07 20:01 | 38.98409 | 2.11127 | 20739 ft | 458 kts | 75° |
| 2026-05-07 20:01 | 38.99308 | 2.15053 | 20127 ft | 457 kts | 75° |
| 2026-05-07 20:01 | 39.00201 | 2.18953 | 19512 ft | 452 kts | 75° |
| 2026-05-07 20:01 | 39.01071 | 2.22759 | 18890 ft | 435 kts | 75° |
| 2026-05-07 20:02 | 39.01909 | 2.26421 | 18285 ft | 420 kts | 75° |
| 2026-05-07 20:02 | 39.02968 | 2.29841 | 17582 ft | 407 kts | 63° |
| 2026-05-07 20:02 | 39.04459 | 2.32881 | 16911 ft | 397 kts | 55° |
| 2026-05-07 20:02 | 39.06105 | 2.35685 | 16235 ft | 388 kts | 53° |
| 2026-05-07 20:03 | 39.07770 | 2.38370 | 15589 ft | 381 kts | 52° |
| 2026-05-07 20:03 | 39.09418 | 2.41018 | 14957 ft | 376 kts | 53° |
| 2026-05-07 20:03 | 39.11006 | 2.43599 | 14342 ft | 370 kts | 53° |
| 2026-05-07 20:03 | 39.12584 | 2.46196 | 13723 ft | 364 kts | 53° |
| 2026-05-07 20:04 | 39.14097 | 2.48708 | 13040 ft | 342 kts | 53° |
| 2026-05-07 20:04 | 39.15465 | 2.50992 | 12380 ft | 321 kts | 54° |
| 2026-05-07 20:04 | 39.16786 | 2.53212 | 11716 ft | 304 kts | 54° |
| 2026-05-07 20:04 | 39.18037 | 2.55319 | 11073 ft | 289 kts | 54° |
| 2026-05-07 20:05 | 39.19317 | 2.57253 | 10433 ft | 279 kts | 41° |
| 2026-05-07 20:05 | 39.21002 | 2.58390 | 9800 ft | 273 kts | 14° |
| 2026-05-07 20:05 | 39.22864 | 2.58507 | 9190 ft | 266 kts | 356° |
| 2026-05-07 20:05 | 39.24691 | 2.58245 | 8487 ft | 263 kts | 354° |
| 2026-05-07 20:06 | 39.26489 | 2.57926 | 7816 ft | 259 kts | 351° |
| 2026-05-07 20:06 | 39.28223 | 2.57313 | 7179 ft | 257 kts | 343° |
| 2026-05-07 20:06 | 39.29719 | 2.56630 | 6649 ft | 254 kts | 342° |
| 2026-05-07 20:06 | 39.31367 | 2.55852 | 5995 ft | 251 kts | 342° |
| 2026-05-07 20:07 | 39.32983 | 2.55080 | 5554 ft | 249 kts | 342° |
| 2026-05-07 20:07 | 39.34601 | 2.54297 | 5057 ft | 248 kts | 341° |
| 2026-05-07 20:07 | 39.36208 | 2.53521 | 4669 ft | 245 kts | 342° |
| 2026-05-07 20:07 | 39.37791 | 2.52754 | 4358 ft | 240 kts | 342° |
| 2026-05-07 20:08 | 39.39354 | 2.52000 | 4112 ft | 241 kts | 343° |
| 2026-05-07 20:08 | 39.40990 | 2.51669 | 3854 ft | 237 kts | 3° |
| 2026-05-07 20:08 | 39.42609 | 2.51800 | 3593 ft | 230 kts | 7° |
| 2026-05-07 20:08 | 39.44188 | 2.51975 | 3347 ft | 226 kts | 7° |
| 2026-05-07 20:09 | 39.45733 | 2.52196 | 3119 ft | 224 kts | 17° |
| 2026-05-07 20:09 | 39.46998 | 2.53207 | 2845 ft | 209 kts | 52° |
| 2026-05-07 20:09 | 39.47608 | 2.54806 | 2589 ft | 190 kts | 73° |
| 2026-05-07 20:10 | 39.48496 | 2.57808 | 2160 ft | 174 kts | 62° |
| 2026-05-07 20:10 | 39.49098 | 2.59160 | 2073 ft | 168 kts | 59° |
| 2026-05-07 20:10 | 39.49709 | 2.60453 | 1952 ft | 167 kts | 59° |
| 2026-05-07 20:10 | 39.50307 | 2.61720 | 1701 ft | 157 kts | 59° |
| 2026-05-07 20:11 | 39.50852 | 2.62873 | 1448 ft | 146 kts | 59° |
| 2026-05-07 20:11 | 39.51378 | 2.63987 | 1281 ft | 145 kts | 60° |
| 2026-05-07 20:11 | 39.51905 | 2.65106 | 1093 ft | 145 kts | 59° |
| 2026-05-07 20:11 | 39.52434 | 2.66222 | 901 ft | 145 kts | 57° |
| 2026-05-07 20:12 | 39.52982 | 2.67345 | 774 ft | 146 kts | 58° |
| 2026-05-07 20:12 | 39.53503 | 2.68470 | 566 ft | 144 kts | 59° |
| 2026-05-07 20:12 | 39.54013 | 2.69593 | 363 ft | 143 kts | 57° |
| 2026-05-07 20:12 | 39.54537 | 2.70681 | 121 ft | 141 kts | 57° |
| 2026-05-07 20:13 | 39.55030 | 2.71723 | 45 ft | 119 kts | 59° |
| 2026-05-07 20:13 | 39.55353 | 2.72418 | 46 ft | 61 kts | 58° |
| 2026-05-07 20:13 | 39.55486 | 2.72729 | 43 ft | 31 kts | 72° |
| 2026-05-07 20:13 | 39.55498 | 2.72985 | 46 ft | 24 kts | 89° |
| 2026-05-07 20:14 | 39.55498 | 2.73033 | 46 ft | 0 kts | 89° |
| 2026-05-07 20:16 | 39.55499 | 2.73054 | 46 ft | 6 kts | 89° |
| 2026-05-07 20:16 | 39.55501 | 2.73128 | 46 ft | 9 kts | 85° |
| 2026-05-07 20:17 | 39.55521 | 2.73211 | 44 ft | 11 kts | 67° |
| 2026-05-07 20:17 | 39.55560 | 2.73301 | 46 ft | 13 kts | 58° |
| 2026-05-07 20:17 | 39.55609 | 2.73405 | 44 ft | 13 kts | 59° |
| 2026-05-07 20:17 | 39.55620 | 2.73491 | 46 ft | 11 kts | 109° |
| 2026-05-07 20:18 | 39.55562 | 2.73546 | 46 ft | 12 kts | 152° |
| 2026-05-07 20:18 | 39.55479 | 2.73611 | 44 ft | 16 kts | 148° |
| 2026-05-07 20:18 | 39.55371 | 2.73697 | 46 ft | 20 kts | 148° |
| 2026-05-07 20:18 | 39.55256 | 2.73786 | 46 ft | 10 kts | 149° |
| 2026-05-07 20:19 | 39.55201 | 2.73819 | 46 ft | 6 kts | 177° |
| 2026-05-07 20:19 | 39.55171 | 2.73804 | 44 ft | 5 kts | 212° |
| 2026-05-07 20:19 | 39.55133 | 2.73781 | 43 ft | 5 kts | 189° |
| 2026-05-07 20:19 | 39.55091 | 2.73759 | 44 ft | 8 kts | 221° |
| 2026-05-07 20:20 | 39.55071 | 2.73723 | 46 ft | 1 kts | 237° |
| 2026-05-07 20:20 | 39.55066 | 2.73714 | 46 ft | 2 kts | 237° |
| 2026-05-07 20:20 | 39.55056 | 2.73694 | 46 ft | 1 kts | 238° |
| 2026-05-07 20:20 | 39.55054 | 2.73690 | 46 ft | 0 kts | 238° |